createdAt,value
2022-09-17T00:00:16.778Z,59.40
2022-09-17T00:02:19.088Z,59.38
2022-09-17T00:04:21.572Z,59.43
2022-09-17T00:06:25.586Z,59.21
2022-09-17T00:08:28.170Z,59.64
2022-09-17T00:10:30.256Z,60.03
2022-09-17T00:12:32.733Z,59.78
2022-09-17T00:14:35.502Z,60.15
2022-09-17T00:16:42.020Z,60.07
2022-09-17T00:18:44.529Z,60.89
2022-09-17T00:20:47.637Z,61.60
2022-09-17T00:22:49.898Z,60.62
2022-09-17T00:24:52.645Z,61.10
2022-09-17T00:26:55.397Z,60.21
2022-09-17T00:28:58.655Z,60.88
2022-09-17T00:31:00.887Z,61.30
2022-09-17T00:33:03.025Z,60.57
2022-09-17T00:35:06.114Z,60.66
2022-09-17T00:37:08.356Z,61.06
2022-09-17T00:39:12.435Z,61.26
2022-09-17T00:41:14.788Z,61.03
2022-09-17T00:43:42.366Z,60.70
2022-09-17T00:45:44.683Z,60.46
2022-09-17T00:48:04.396Z,61.02
2022-09-17T00:50:17.748Z,61.25
2022-09-17T00:52:26.073Z,61.29
2022-09-17T00:54:29.012Z,60.77
2022-09-17T00:56:34.165Z,61.04
2022-09-17T00:58:41.090Z,60.87
2022-09-17T01:00:47.423Z,60.64
2022-09-17T01:02:49.960Z,61.20
2022-09-17T01:04:52.126Z,61.12
2022-09-17T01:07:43.179Z,61.07
2022-09-17T01:10:07.018Z,60.81
2022-09-17T01:12:29.000Z,62.02
2022-09-17T01:14:47.807Z,62.02
2022-09-17T01:17:05.109Z,61.62
2022-09-17T01:19:08.524Z,61.09
2022-09-17T01:21:29.374Z,61.25
2022-09-17T01:23:34.152Z,61.56
2022-09-17T01:25:54.942Z,61.46
2022-09-17T01:28:15.828Z,61.61
2022-09-17T01:30:56.244Z,62.26
2022-09-17T01:33:14.010Z,62.84
2022-09-17T01:35:48.034Z,62.48
2022-09-17T01:38:33.524Z,62.14
2022-09-17T01:41:07.914Z,62.45
2022-09-17T01:43:15.270Z,61.96
2022-09-17T01:45:39.581Z,62.41
2022-09-17T01:47:57.245Z,61.86
2022-09-17T01:50:05.350Z,61.61
2022-09-17T01:52:11.348Z,61.85
2022-09-17T01:54:17.860Z,62.19
2022-09-17T01:56:25.262Z,62.28
2022-09-17T01:58:31.829Z,62.84
2022-09-17T02:00:34.468Z,63.02
2022-09-17T02:02:58.502Z,63.39
2022-09-17T02:05:10.591Z,62.74
2022-09-17T02:07:23.139Z,62.58
2022-09-17T02:09:33.198Z,62.50
2022-09-17T02:11:39.358Z,62.28
2022-09-17T02:13:48.870Z,62.37
2022-09-17T02:16:14.398Z,63.50
2022-09-17T02:18:37.808Z,63.70
2022-09-17T02:20:48.647Z,62.70
2022-09-17T02:22:58.119Z,63.80
2022-09-17T02:25:20.490Z,63.76
2022-09-17T02:27:31.301Z,63.49
2022-09-17T02:29:39.931Z,63.08
2022-09-17T02:31:42.648Z,62.62
2022-09-17T02:33:52.071Z,62.65
2022-09-17T02:35:54.338Z,62.73
2022-09-17T02:37:57.225Z,63.17
2022-09-17T02:39:59.364Z,62.48
2022-09-17T02:42:20.003Z,63.23
2022-09-17T02:44:55.757Z,62.81
2022-09-17T02:47:16.673Z,62.48
2022-09-17T02:49:21.770Z,62.90
2022-09-17T02:51:47.680Z,63.88
2022-09-17T02:53:58.165Z,64.29
2022-09-17T02:56:14.729Z,63.17
2022-09-17T02:58:17.024Z,63.15
2022-09-17T03:00:21.669Z,63.35
2022-09-17T03:02:30.361Z,63.67
2022-09-17T03:04:34.200Z,63.28
2022-09-17T03:06:36.694Z,63.63
2022-09-17T03:08:42.198Z,64.03
2022-09-17T03:10:44.936Z,63.09
2022-09-17T03:12:47.615Z,63.73
2022-09-17T03:14:49.600Z,63.28
2022-09-17T03:16:51.762Z,63.59
2022-09-17T03:18:53.853Z,63.25
2022-09-17T03:20:58.196Z,63.25
2022-09-17T03:23:00.167Z,63.54
2022-09-17T03:25:02.126Z,63.35
2022-09-17T03:27:04.432Z,63.51
2022-09-17T03:29:06.642Z,63.50
2022-09-17T03:31:08.876Z,63.62
2022-09-17T03:33:11.519Z,63.30
2022-09-17T03:35:13.647Z,63.49
2022-09-17T03:37:15.749Z,63.15
2022-09-17T03:39:18.048Z,62.92
2022-09-17T03:41:20.569Z,62.83
2022-09-17T03:43:23.886Z,63.22
2022-09-17T03:45:25.891Z,62.91
2022-09-17T03:47:28.409Z,63.07
2022-09-17T03:49:30.623Z,63.37
2022-09-17T03:51:33.846Z,63.14
2022-09-17T03:53:35.720Z,63.11
2022-09-17T03:55:41.323Z,63.54
2022-09-17T03:57:43.569Z,64.20
2022-09-17T03:59:45.539Z,64.00
2022-09-17T04:01:47.842Z,64.03
2022-09-17T04:03:50.188Z,64.08
2022-09-17T04:05:52.151Z,64.04
2022-09-17T04:07:54.216Z,63.57
2022-09-17T04:09:56.285Z,63.71
2022-09-17T04:11:58.920Z,63.25
2022-09-17T04:14:01.027Z,63.67
2022-09-17T04:16:03.756Z,63.85
2022-09-17T04:18:06.347Z,63.72
2022-09-17T04:20:09.009Z,63.70
2022-09-17T04:22:14.108Z,63.53
2022-09-17T04:24:16.157Z,63.68
2022-09-17T04:26:18.743Z,63.68
2022-09-17T04:28:20.945Z,63.77
2022-09-17T04:30:23.455Z,63.60
2022-09-17T04:32:25.393Z,63.76
2022-09-17T04:34:27.566Z,63.83
2022-09-17T04:36:29.805Z,63.79
2022-09-17T04:38:33.752Z,63.93
2022-09-17T04:40:38.111Z,64.21
2022-09-17T04:42:40.326Z,64.51
2022-09-17T04:44:42.345Z,64.61
2022-09-17T04:46:47.401Z,64.77
2022-09-17T04:48:49.535Z,64.79
2022-09-17T04:50:51.967Z,64.61
2022-09-17T04:52:54.215Z,64.70
2022-09-17T04:54:56.478Z,65.33
2022-09-17T04:57:00.471Z,65.45
2022-09-17T04:59:03.010Z,65.56
2022-09-17T05:01:05.243Z,65.70
2022-09-17T05:03:07.338Z,65.42
2022-09-17T05:05:09.610Z,65.16
2022-09-17T05:07:13.832Z,65.46
2022-09-17T05:09:16.362Z,64.88
2022-09-17T05:11:18.914Z,64.99
2022-09-17T05:13:20.971Z,65.25
2022-09-17T05:15:24.806Z,65.81
2022-09-17T05:17:26.792Z,65.61
2022-09-17T05:19:29.104Z,66.03
2022-09-17T05:21:31.545Z,65.99
2022-09-17T05:23:33.490Z,66.15
2022-09-17T05:25:37.199Z,66.23
2022-09-17T05:27:40.232Z,66.43
2022-09-17T05:29:42.589Z,66.67
2022-09-17T05:31:44.887Z,66.34
2022-09-17T05:33:46.811Z,66.93
2022-09-17T05:35:49.460Z,66.46
2022-09-17T05:37:51.535Z,66.13
2022-09-17T05:39:53.904Z,66.44
2022-09-17T05:41:56.452Z,66.28
2022-09-17T05:43:58.996Z,65.99
2022-09-17T05:46:06.106Z,66.24
2022-09-17T05:48:15.095Z,66.50
2022-09-17T05:50:17.424Z,66.50
2022-09-17T05:52:20.106Z,66.49
2022-09-17T05:54:22.269Z,66.31
2022-09-17T05:56:24.592Z,65.88
2022-09-17T05:58:27.470Z,65.91
2022-09-17T06:00:30.198Z,65.89
2022-09-17T06:02:32.524Z,65.62
2022-09-17T06:04:37.122Z,65.13
2022-09-17T06:06:41.752Z,65.32
2022-09-17T06:08:44.211Z,64.80
2022-09-17T06:10:46.454Z,64.65
2022-09-17T06:12:56.356Z,65.22
2022-09-17T06:14:58.620Z,64.65
2022-09-17T06:17:01.078Z,64.22
2022-09-17T06:19:04.573Z,64.51
2022-09-17T06:21:07.171Z,64.50
2022-09-17T06:23:12.774Z,64.44
2022-09-17T06:25:20.193Z,64.41
2022-09-17T06:27:22.463Z,64.32
2022-09-17T06:29:24.828Z,64.09
2022-09-17T06:31:27.260Z,64.24
2022-09-17T06:33:31.715Z,64.40
2022-09-17T06:35:37.405Z,64.15
2022-09-17T06:37:41.059Z,63.86
2022-09-17T06:39:43.772Z,63.99
2022-09-17T06:41:46.478Z,63.94
2022-09-17T06:43:59.481Z,64.00
2022-09-17T06:46:06.379Z,63.99
2022-09-17T06:48:08.537Z,63.82
2022-09-17T06:50:11.260Z,63.90
2022-09-17T06:52:13.691Z,63.87
2022-09-17T06:54:15.877Z,63.54
2022-09-17T06:56:20.245Z,63.89
2022-09-17T06:58:23.644Z,63.97
2022-09-17T07:00:30.734Z,63.74
2022-09-17T07:02:33.170Z,63.69
2022-09-17T07:04:35.519Z,63.21
2022-09-17T07:06:40.788Z,63.30
2022-09-17T07:08:43.017Z,63.60
2022-09-17T07:10:47.887Z,63.50
2022-09-17T07:12:50.414Z,63.08
2022-09-17T07:14:52.980Z,63.27
2022-09-17T07:16:55.305Z,63.71
2022-09-17T07:18:57.646Z,63.54
2022-09-17T07:21:02.008Z,63.65
2022-09-17T07:23:08.957Z,63.62
2022-09-17T07:25:12.137Z,63.36
2022-09-17T07:27:14.453Z,63.18
2022-09-17T07:29:19.217Z,62.67
2022-09-17T07:31:21.824Z,63.07
2022-09-17T07:33:29.848Z,63.30
2022-09-17T07:35:32.186Z,63.24
2022-09-17T07:37:34.341Z,63.26
2022-09-17T07:39:36.913Z,62.95
2022-09-17T07:41:42.138Z,63.03
2022-09-17T07:43:47.000Z,62.86
2022-09-17T07:45:50.883Z,63.03
2022-09-17T07:47:53.063Z,62.84
2022-09-17T07:49:55.194Z,62.95
2022-09-17T07:51:58.110Z,62.49
2022-09-17T07:54:00.924Z,62.39
2022-09-17T07:56:03.051Z,62.22
2022-09-17T07:58:05.975Z,62.13
2022-09-17T08:00:09.774Z,62.07
2022-09-17T08:02:14.712Z,61.41
2022-09-17T08:04:17.583Z,61.50
2022-09-17T08:06:23.346Z,61.53
2022-09-17T08:08:28.723Z,61.49
2022-09-17T08:10:34.138Z,61.67
2022-09-17T08:12:36.445Z,61.65
2022-09-17T08:15:29.207Z,61.25
2022-09-17T08:17:31.977Z,61.49
2022-09-17T08:19:34.105Z,61.05
2022-09-17T08:21:36.887Z,60.66
2022-09-17T08:23:41.680Z,60.94
2022-09-17T08:25:44.006Z,60.85
2022-09-17T08:27:46.329Z,61.10
2022-09-17T08:29:48.547Z,60.71
2022-09-17T08:31:50.852Z,60.64
2022-09-17T08:33:53.435Z,60.84
2022-09-17T08:35:59.797Z,60.78
2022-09-17T08:38:02.614Z,60.99
2022-09-17T08:40:05.387Z,61.35
2022-09-17T08:42:18.431Z,61.09
2022-09-17T08:44:25.573Z,61.07
2022-09-17T08:46:32.394Z,60.94
2022-09-17T08:48:53.174Z,61.32
2022-09-17T08:51:02.445Z,60.95
2022-09-17T08:53:24.591Z,61.11
2022-09-17T08:55:47.360Z,61.34
2022-09-17T08:58:11.206Z,61.35
2022-09-17T09:00:19.198Z,61.43
2022-09-17T09:02:43.223Z,61.69
2022-09-17T09:04:58.544Z,61.75
2022-09-17T09:07:06.944Z,62.04
2022-09-17T09:09:15.010Z,62.05
2022-09-17T09:11:22.829Z,61.72
2022-09-17T09:13:31.562Z,61.90
2022-09-17T09:15:43.837Z,61.62
2022-09-17T09:17:50.095Z,61.71
2022-09-17T09:19:54.325Z,61.52
2022-09-17T09:22:06.234Z,61.57
2022-09-17T09:27:47.791Z,61.37
2022-09-17T09:30:07.310Z,61.52
2022-09-17T09:32:23.216Z,61.92
2022-09-17T09:34:30.136Z,61.62
2022-09-17T09:36:34.048Z,61.72
2022-09-17T09:38:43.335Z,61.60
2022-09-17T09:41:01.222Z,61.04
2022-09-17T09:44:09.938Z,61.04
2022-09-17T09:46:47.523Z,61.16
2022-09-17T09:49:19.036Z,61.16
2022-09-17T09:51:33.099Z,60.93
2022-09-17T09:53:41.191Z,60.85
2022-09-17T09:55:53.666Z,61.07
2022-09-17T09:58:03.751Z,60.58
2022-09-17T10:00:26.293Z,60.77
2022-09-17T10:02:28.767Z,60.82
2022-09-17T10:04:33.108Z,61.29
2022-09-17T10:06:36.314Z,61.29
2022-09-17T10:08:41.288Z,60.84
2022-09-17T10:11:01.890Z,61.10
2022-09-17T10:13:15.178Z,60.84
2022-09-17T10:15:28.782Z,60.40
2022-09-17T10:17:34.161Z,61.11
2022-09-17T10:19:39.326Z,60.69
2022-09-17T10:21:43.701Z,60.79
2022-09-17T10:23:46.243Z,60.65
2022-09-17T10:25:49.443Z,60.88
2022-09-17T10:27:51.989Z,61.16
2022-09-17T10:30:17.410Z,60.65
2022-09-17T10:32:22.465Z,61.08
2022-09-17T10:34:26.104Z,61.09
2022-09-17T10:36:46.306Z,60.88
2022-09-17T10:38:48.923Z,61.07
2022-09-17T10:40:51.342Z,60.96
2022-09-17T10:43:29.438Z,61.23
2022-09-17T10:45:33.538Z,60.99
2022-09-17T10:47:44.108Z,60.94
2022-09-17T10:49:58.003Z,61.06
2022-09-17T10:52:10.431Z,61.11
2022-09-17T10:54:36.253Z,61.37
2022-09-17T10:56:50.210Z,61.40
2022-09-17T10:59:27.844Z,61.53
2022-09-17T11:01:38.319Z,61.45
2022-09-17T11:04:06.359Z,62.02
2022-09-17T11:06:24.926Z,62.14
2022-09-17T11:09:07.141Z,62.29
2022-09-17T11:11:20.724Z,62.17
2022-09-17T11:13:49.703Z,62.04
2022-09-17T11:16:19.888Z,61.77
2022-09-17T11:18:36.204Z,61.53
2022-09-17T11:20:51.155Z,61.86
2022-09-17T11:23:17.508Z,61.65
2022-09-17T11:25:47.981Z,61.31
2022-09-17T11:28:18.194Z,61.23
2022-09-17T11:30:24.379Z,61.11
2022-09-17T11:32:52.667Z,60.46
2022-09-17T11:35:04.104Z,60.75
2022-09-17T11:37:23.920Z,60.62
2022-09-17T11:39:45.436Z,60.37
2022-09-17T11:41:52.541Z,60.50
2022-09-17T11:44:17.349Z,61.04
2022-09-17T11:46:25.586Z,60.87
2022-09-17T11:48:35.622Z,60.76
2022-09-17T11:51:04.750Z,60.67
2022-09-17T11:53:35.546Z,60.53
2022-09-17T11:55:47.047Z,60.70
2022-09-17T11:58:00.976Z,60.48
2022-09-17T12:00:18.118Z,60.30
2022-09-17T12:02:27.276Z,60.58
2022-09-17T12:04:38.150Z,60.82
2022-09-17T12:07:22.566Z,60.46
2022-09-17T12:09:33.309Z,60.32
2022-09-17T12:11:49.437Z,60.31
2022-09-17T12:13:56.054Z,59.86
2022-09-17T12:16:24.381Z,59.55
2022-09-17T12:18:59.094Z,59.58
2022-09-17T12:21:05.481Z,59.32
2022-09-17T12:23:16.451Z,58.88
2022-09-17T12:25:19.018Z,59.29
2022-09-17T12:27:35.362Z,59.00
2022-09-17T12:30:05.397Z,59.00
2022-09-17T12:32:44.789Z,59.12
2022-09-17T12:35:22.233Z,58.66
2022-09-17T12:37:39.544Z,58.72
2022-09-17T12:40:23.807Z,58.41
2022-09-17T12:43:02.869Z,58.33
2022-09-17T12:45:08.323Z,58.76
2022-09-17T12:47:48.103Z,58.67
2022-09-17T12:50:19.553Z,58.48
2022-09-17T12:52:59.318Z,58.24
2022-09-17T12:55:19.886Z,58.37
2022-09-17T12:57:29.017Z,58.10
2022-09-17T12:59:37.308Z,57.42
2022-09-17T13:01:48.674Z,57.74
2022-09-17T13:04:19.008Z,57.24
2022-09-17T13:06:33.462Z,57.99
2022-09-17T13:09:06.612Z,56.95
2022-09-17T13:11:41.488Z,58.44
2022-09-17T13:14:05.292Z,56.66
2022-09-17T13:16:14.451Z,57.50
2022-09-17T13:19:16.389Z,57.19
2022-09-17T13:21:40.431Z,58.29
2022-09-17T13:23:45.983Z,58.05
2022-09-17T13:25:55.671Z,58.10
2022-09-17T13:28:09.847Z,56.97
2022-09-17T13:30:15.920Z,57.81
2022-09-17T13:32:33.232Z,58.15
2022-09-17T13:34:36.488Z,57.33
2022-09-17T13:37:01.458Z,55.92
2022-09-17T13:39:06.205Z,57.22
2022-09-17T13:41:20.930Z,56.34
2022-09-17T13:43:49.095Z,56.35
2022-09-17T13:46:00.206Z,57.30
2022-09-17T13:48:10.870Z,56.74
2022-09-17T13:50:34.592Z,56.54
2022-09-17T13:52:44.997Z,56.83
2022-09-17T13:54:47.471Z,56.85
2022-09-17T13:57:08.753Z,56.53
2022-09-17T13:59:16.467Z,56.74
2022-09-17T14:01:59.132Z,56.09
2022-09-17T14:04:03.447Z,56.95
2022-09-17T14:06:05.916Z,56.94
2022-09-17T14:08:14.572Z,56.75
2022-09-17T14:10:16.860Z,56.59
2022-09-17T14:12:44.964Z,56.48
2022-09-17T14:14:52.355Z,56.56
2022-09-17T14:16:54.491Z,56.79
2022-09-17T14:19:02.642Z,56.43
2022-09-17T14:21:38.258Z,56.33
2022-09-17T14:23:56.186Z,56.11
2022-09-17T14:25:58.544Z,56.41
2022-09-17T14:28:08.220Z,56.28
2022-09-17T14:30:36.563Z,55.62
2022-09-17T14:33:02.772Z,55.95
2022-09-17T14:35:37.266Z,56.20
2022-09-17T14:37:45.856Z,56.06
2022-09-17T14:39:51.147Z,56.10
2022-09-17T14:41:57.709Z,55.88
2022-09-17T14:44:08.711Z,55.55
2022-09-17T14:46:20.560Z,55.72
2022-09-17T14:48:35.301Z,55.79
2022-09-17T14:50:38.127Z,56.25
2022-09-17T14:52:40.698Z,56.24
2022-09-17T14:54:44.791Z,56.52
2022-09-17T14:56:52.858Z,56.67
2022-09-17T14:58:56.360Z,56.76
2022-09-17T15:00:59.907Z,56.90
2022-09-17T15:03:02.693Z,56.92
2022-09-17T15:05:27.136Z,57.26
2022-09-17T15:07:29.509Z,57.09
2022-09-17T15:09:31.752Z,57.21
2022-09-17T15:11:44.475Z,56.86
2022-09-17T15:13:53.918Z,57.48
2022-09-17T15:15:57.903Z,57.39
2022-09-17T15:18:00.020Z,57.85
2022-09-17T15:20:09.185Z,57.81
2022-09-17T15:22:40.925Z,58.22
2022-09-17T15:24:57.485Z,58.44
2022-09-17T15:27:10.572Z,58.27
2022-09-17T15:29:17.428Z,57.91
2022-09-17T15:31:20.951Z,58.17
2022-09-17T15:33:26.662Z,58.53
2022-09-17T15:35:30.985Z,57.83
2022-09-17T15:37:33.091Z,58.44
2022-09-17T15:39:41.081Z,58.81
2022-09-17T15:41:43.621Z,58.34
2022-09-17T15:43:47.731Z,58.33
2022-09-17T15:45:50.131Z,58.27
2022-09-17T15:47:57.975Z,59.09
2022-09-17T15:50:14.884Z,58.75
2022-09-17T15:52:33.148Z,60.86
2022-09-17T15:54:38.163Z,59.90
2022-09-17T15:56:41.631Z,59.50
2022-09-17T15:58:46.893Z,59.19
2022-09-17T16:01:20.087Z,59.57
2022-09-17T16:04:02.027Z,59.45
2022-09-17T16:06:04.911Z,59.61
2022-09-17T16:08:21.729Z,59.66
2022-09-17T16:10:23.809Z,59.46
2022-09-17T16:12:29.032Z,59.67
2022-09-17T16:14:31.386Z,59.40
2022-09-17T16:16:36.698Z,59.86
2022-09-17T16:18:38.840Z,60.00
2022-09-17T16:20:41.301Z,60.29
2022-09-17T16:22:50.020Z,61.09
2022-09-17T16:24:53.353Z,60.99
2022-09-17T16:26:55.560Z,60.58
2022-09-17T16:29:08.001Z,61.72
2022-09-17T16:31:13.592Z,60.35
2022-09-17T16:33:19.990Z,60.49
2022-09-17T16:35:24.336Z,60.88
2022-09-17T16:37:26.449Z,61.31
2022-09-17T16:39:31.358Z,61.55
2022-09-17T16:41:33.627Z,61.70
2022-09-17T16:43:35.965Z,61.27
2022-09-17T16:45:41.150Z,61.35
2022-09-17T16:47:43.515Z,61.04
2022-09-17T16:49:50.966Z,60.99
2022-09-17T16:51:53.177Z,60.86
2022-09-17T16:53:58.071Z,60.99
2022-09-17T16:56:00.352Z,61.06
2022-09-17T16:58:03.230Z,60.67
2022-09-17T17:00:09.424Z,61.13
2022-09-17T17:02:11.727Z,61.27
2022-09-17T17:04:14.180Z,61.32
2022-09-17T17:06:17.640Z,61.06
2022-09-17T17:08:19.797Z,61.48
2022-09-17T17:10:23.046Z,61.55
2022-09-17T17:12:26.032Z,61.59
2022-09-17T17:14:28.204Z,61.75
2022-09-17T17:16:30.388Z,61.74
2022-09-17T17:18:32.539Z,61.79
2022-09-17T17:20:38.349Z,62.14
2022-09-17T17:22:43.702Z,62.74
2022-09-17T17:24:46.055Z,62.86
2022-09-17T17:26:49.151Z,62.79
2022-09-17T17:28:51.346Z,63.03
2022-09-17T17:30:56.153Z,63.09
2022-09-17T17:33:03.466Z,63.25
2022-09-17T17:35:06.430Z,63.25
2022-09-17T17:37:08.807Z,63.87
2022-09-17T17:39:11.157Z,63.02
2022-09-17T17:41:16.081Z,63.47
2022-09-17T17:43:18.224Z,63.56
2022-09-17T17:45:20.553Z,62.67
2022-09-17T17:47:22.988Z,63.15
2022-09-17T17:49:25.923Z,63.38
2022-09-17T17:51:28.366Z,63.28
2022-09-17T17:53:32.133Z,62.92
2022-09-17T17:55:34.823Z,62.62
2022-09-17T17:57:37.142Z,63.37
2022-09-17T17:59:39.817Z,63.23
2022-09-17T18:01:42.333Z,63.34
2022-09-17T18:03:45.015Z,63.41
2022-09-17T18:05:47.348Z,63.73
2022-09-17T18:07:50.179Z,63.42
2022-09-17T18:09:52.728Z,63.82
2022-09-17T18:11:55.383Z,63.67
2022-09-17T18:14:01.322Z,63.88
2022-09-17T18:16:05.070Z,64.47
2022-09-17T18:18:07.292Z,64.38
2022-09-17T18:20:10.502Z,64.75
2022-09-17T18:22:12.904Z,64.79
2022-09-17T18:24:15.159Z,65.19
2022-09-17T18:26:20.553Z,65.94
2022-09-17T18:28:23.321Z,65.26
2022-09-17T18:30:25.397Z,65.02
2022-09-17T18:32:27.482Z,65.05
2022-09-17T18:34:30.051Z,65.05
2022-09-17T18:36:34.321Z,64.99
2022-09-17T18:38:40.015Z,65.03
2022-09-17T18:40:43.472Z,64.61
2022-09-17T18:42:46.094Z,64.59
2022-09-17T18:44:49.559Z,64.37
2022-09-17T18:46:52.169Z,64.45
2022-09-17T18:48:56.131Z,64.73
2022-09-17T18:51:04.325Z,65.28
2022-09-17T18:53:06.584Z,64.85
2022-09-17T18:55:09.489Z,64.49
2022-09-17T18:57:14.884Z,64.36
2022-09-17T18:59:17.079Z,64.52
2022-09-17T19:01:22.224Z,64.56
2022-09-17T19:03:24.521Z,64.52
2022-09-17T19:05:27.204Z,64.62
2022-09-17T19:07:29.959Z,64.31
2022-09-17T19:09:31.990Z,65.21
2022-09-17T19:11:37.412Z,64.71
2022-09-17T19:13:42.598Z,64.77
2022-09-17T19:15:50.869Z,64.54
2022-09-17T19:18:04.378Z,64.72
2022-09-17T19:20:09.297Z,64.81
2022-09-17T19:22:12.298Z,64.48
2022-09-17T19:24:14.623Z,64.11
2022-09-17T19:26:21.152Z,64.21
2022-09-17T19:28:24.015Z,64.66
2022-09-17T19:30:29.325Z,64.02
2022-09-17T19:32:32.047Z,63.98
2022-09-17T19:34:36.948Z,64.43
2022-09-17T19:36:41.994Z,64.45
2022-09-17T19:38:45.238Z,64.68
2022-09-17T19:41:01.389Z,65.07
2022-09-17T19:43:03.817Z,64.30
2022-09-17T19:45:06.897Z,64.69
2022-09-17T19:47:09.464Z,64.88
2022-09-17T19:49:13.986Z,64.71
2022-09-17T19:51:17.953Z,64.61
2022-09-17T19:53:20.987Z,65.04
2022-09-17T19:55:24.778Z,65.36
2022-09-17T19:57:26.845Z,65.16
2022-09-17T19:59:29.336Z,64.62
2022-09-17T20:01:32.064Z,64.75
2022-09-17T20:03:34.665Z,64.71
2022-09-17T20:05:37.262Z,64.26
2022-09-17T20:07:39.330Z,64.39
2022-09-17T20:09:44.888Z,65.20
2022-09-17T20:11:47.065Z,64.84
2022-09-17T20:14:08.983Z,65.16
2022-09-17T20:16:17.177Z,64.51
2022-09-17T20:18:23.333Z,64.53
2022-09-17T20:20:30.755Z,64.89
2022-09-17T20:22:33.993Z,64.59
2022-09-17T20:24:36.396Z,65.12
2022-09-17T20:26:38.804Z,65.06
2022-09-17T20:28:42.012Z,65.44
2022-09-17T20:30:44.446Z,65.10
2022-09-17T20:32:48.182Z,65.09
2022-09-17T20:34:51.785Z,64.84
2022-09-17T20:37:06.714Z,64.99
2022-09-17T20:39:22.300Z,65.53
2022-09-17T20:41:27.758Z,65.34
2022-09-17T20:43:36.585Z,65.33
2022-09-17T20:46:05.006Z,65.59
2022-09-17T20:48:07.339Z,64.90
2022-09-17T20:50:10.127Z,65.05
2022-09-17T20:52:20.421Z,65.17
2022-09-17T20:54:23.235Z,65.18
2022-09-17T20:56:35.450Z,65.24
2022-09-17T20:58:45.585Z,64.78
2022-09-17T21:00:47.791Z,65.05
2022-09-17T21:02:54.139Z,65.05
2022-09-17T21:04:56.812Z,65.20
2022-09-17T21:06:59.390Z,65.36
2022-09-17T21:09:02.974Z,64.94
2022-09-17T21:11:05.575Z,64.14
2022-09-17T21:13:07.785Z,64.12
2022-09-17T21:15:10.368Z,64.23
2022-09-17T21:17:13.019Z,64.75
2022-09-17T21:19:16.796Z,64.62
2022-09-17T21:21:19.229Z,64.74
2022-09-17T21:23:26.070Z,64.72
2022-09-17T21:25:28.845Z,64.35
2022-09-17T21:27:32.702Z,64.40
2022-09-17T21:29:34.807Z,64.38
2022-09-17T21:31:37.932Z,64.76
2022-09-17T21:33:42.055Z,64.57
2022-09-17T21:35:44.575Z,64.73
2022-09-17T21:37:47.063Z,64.90
2022-09-17T21:39:49.364Z,64.80
2022-09-17T21:41:51.823Z,64.61
2022-09-17T21:43:54.779Z,64.78
2022-09-17T21:46:08.803Z,65.12
2022-09-17T21:48:10.999Z,65.29
2022-09-17T21:51:03.031Z,65.79
2022-09-17T21:53:11.338Z,65.15
2022-09-17T21:55:13.801Z,65.31
2022-09-17T21:57:40.993Z,66.09
2022-09-17T21:59:46.338Z,65.35
2022-09-17T22:01:52.302Z,65.69
2022-09-17T22:03:57.602Z,65.57
2022-09-17T22:06:05.748Z,65.80
2022-09-17T22:08:08.157Z,65.42
2022-09-17T22:10:14.499Z,65.32
2022-09-17T22:12:19.601Z,65.41
2022-09-17T22:14:25.252Z,65.47
2022-09-17T22:16:30.889Z,65.01
2022-09-17T22:18:35.227Z,65.42
2022-09-17T22:20:37.693Z,64.87
2022-09-17T22:22:39.870Z,65.12
2022-09-17T22:24:45.223Z,64.67
2022-09-17T22:26:55.717Z,64.77
2022-09-17T22:29:04.682Z,64.52
2022-09-17T22:31:11.700Z,64.60
2022-09-17T22:33:14.003Z,64.47
2022-09-17T22:35:16.118Z,64.89
2022-09-17T22:37:18.535Z,65.14
2022-09-17T22:39:21.729Z,64.61
2022-09-17T22:41:30.274Z,64.94
2022-09-17T22:43:32.756Z,64.79
2022-09-17T22:45:34.721Z,65.04
2022-09-17T22:47:36.791Z,64.85
2022-09-17T22:49:39.002Z,64.86
2022-09-17T22:51:42.162Z,65.03
2022-09-17T22:53:44.857Z,64.75
2022-09-17T22:55:59.523Z,65.11
2022-09-17T22:58:01.694Z,65.11
2022-09-17T23:00:09.010Z,65.10
2022-09-17T23:02:11.138Z,65.00
2022-09-17T23:04:13.659Z,65.27
2022-09-17T23:06:19.069Z,65.43
2022-09-17T23:08:21.197Z,65.26
2022-09-17T23:10:23.707Z,65.03
2022-09-17T23:12:26.383Z,65.07
2022-09-17T23:14:28.640Z,65.04
2022-09-17T23:16:44.800Z,64.87
2022-09-17T23:18:47.224Z,64.98
2022-09-17T23:21:09.835Z,64.96
2022-09-17T23:23:12.362Z,64.44
2022-09-17T23:25:14.742Z,64.36
2022-09-17T23:27:18.184Z,64.21
2022-09-17T23:29:20.469Z,64.34
2022-09-17T23:31:26.004Z,64.11
2022-09-17T23:33:28.285Z,64.05
2022-09-17T23:35:30.534Z,63.86
2022-09-17T23:37:33.098Z,63.77
2022-09-17T23:39:35.428Z,63.97
2022-09-17T23:41:40.897Z,63.85
2022-09-17T23:43:45.895Z,63.71
2022-09-17T23:45:56.811Z,64.00
2022-09-17T23:47:59.239Z,63.88
2022-09-17T23:50:01.667Z,63.79
2022-09-17T23:52:04.297Z,63.64
2022-09-17T23:54:07.516Z,63.60
2022-09-17T23:56:19.346Z,63.53
2022-09-17T23:58:21.666Z,64.07
